sensor_id;sensor_type;location;lat;lon;timestamp;P1;durP1;ratioP1;P2;durP2;ratioP2
70332;SDS011;57747;43.548;-5.704;2023-07-02T00:02:21;6.32;;;2.35;;
70332;SDS011;57747;43.548;-5.704;2023-07-02T00:04:47;6.47;;;2.20;;
70332;SDS011;57747;43.548;-5.704;2023-07-02T00:07:12;6.10;;;2.35;;
70332;SDS011;57747;43.548;-5.704;2023-07-02T00:09:38;5.50;;;2.55;;
70332;SDS011;57747;43.548;-5.704;2023-07-02T00:12:03;6.45;;;2.90;;
70332;SDS011;57747;43.548;-5.704;2023-07-02T00:14:29;13.80;;;3.30;;
70332;SDS011;57747;43.548;-5.704;2023-07-02T00:16:54;8.45;;;2.78;;
70332;SDS011;57747;43.548;-5.704;2023-07-02T00:19:19;7.22;;;2.75;;
70332;SDS011;57747;43.548;-5.704;2023-07-02T00:21:45;7.80;;;3.30;;
70332;SDS011;57747;43.548;-5.704;2023-07-02T00:24:10;10.73;;;3.65;;
70332;SDS011;57747;43.548;-5.704;2023-07-02T00:26:36;7.22;;;3.45;;
70332;SDS011;57747;43.548;-5.704;2023-07-02T00:29:02;6.68;;;2.97;;
70332;SDS011;57747;43.548;-5.704;2023-07-02T00:31:31;10.23;;;3.33;;
70332;SDS011;57747;43.548;-5.704;2023-07-02T00:33:56;10.20;;;3.95;;
70332;SDS011;57747;43.548;-5.704;2023-07-02T00:36:22;12.25;;;4.22;;
70332;SDS011;57747;43.548;-5.704;2023-07-02T00:38:50;8.48;;;3.78;;
70332;SDS011;57747;43.548;-5.704;2023-07-02T00:41:18;19.35;;;5.22;;
70332;SDS011;57747;43.548;-5.704;2023-07-02T00:43:47;13.25;;;4.65;;
70332;SDS011;57747;43.548;-5.704;2023-07-02T00:46:17;18.90;;;5.22;;
70332;SDS011;57747;43.548;-5.704;2023-07-02T00:48:54;15.05;;;5.22;;
70332;SDS011;57747;43.548;-5.704;2023-07-02T00:51:23;17.13;;;5.70;;
70332;SDS011;57747;43.548;-5.704;2023-07-02T00:53:49;17.73;;;5.55;;
70332;SDS011;57747;43.548;-5.704;2023-07-02T00:56:15;22.52;;;5.93;;
70332;SDS011;57747;43.548;-5.704;2023-07-02T00:58:41;15.95;;;5.32;;
70332;SDS011;57747;43.548;-5.704;2023-07-02T01:03:58;14.27;;;5.65;;
70332;SDS011;57747;43.548;-5.704;2023-07-02T01:06:36;18.55;;;5.63;;
70332;SDS011;57747;43.548;-5.704;2023-07-02T01:09:05;21.40;;;5.60;;
70332;SDS011;57747;43.548;-5.704;2023-07-02T01:14:19;18.10;;;6.57;;
70332;SDS011;57747;43.548;-5.704;2023-07-02T01:16:42;18.65;;;6.25;;
70332;SDS011;57747;43.548;-5.704;2023-07-02T01:19:12;24.15;;;6.88;;
70332;SDS011;57747;43.548;-5.704;2023-07-02T01:21:38;16.02;;;6.75;;
70332;SDS011;57747;43.548;-5.704;2023-07-02T01:24:04;16.80;;;6.30;;
70332;SDS011;57747;43.548;-5.704;2023-07-02T01:26:30;16.02;;;5.68;;
70332;SDS011;57747;43.548;-5.704;2023-07-02T01:28:59;23.02;;;5.63;;
70332;SDS011;57747;43.548;-5.704;2023-07-02T01:31:24;21.25;;;5.70;;
70332;SDS011;57747;43.548;-5.704;2023-07-02T01:33:51;16.38;;;5.18;;
70332;SDS011;57747;43.548;-5.704;2023-07-02T01:36:16;15.73;;;5.50;;
70332;SDS011;57747;43.548;-5.704;2023-07-02T01:38:44;20.88;;;5.20;;
70332;SDS011;57747;43.548;-5.704;2023-07-02T01:41:10;28.63;;;5.88;;
70332;SDS011;57747;43.548;-5.704;2023-07-02T01:43:35;15.40;;;5.50;;
70332;SDS011;57747;43.548;-5.704;2023-07-02T01:46:00;10.98;;;4.90;;
70332;SDS011;57747;43.548;-5.704;2023-07-02T01:48:27;13.75;;;5.05;;
70332;SDS011;57747;43.548;-5.704;2023-07-02T01:50:52;14.50;;;5.60;;
70332;SDS011;57747;43.548;-5.704;2023-07-02T01:53:17;12.75;;;5.07;;
70332;SDS011;57747;43.548;-5.704;2023-07-02T01:55:43;12.50;;;4.63;;
70332;SDS011;57747;43.548;-5.704;2023-07-02T01:58:08;16.73;;;6.00;;
70332;SDS011;57747;43.548;-5.704;2023-07-02T02:03:48;11.45;;;4.65;;
70332;SDS011;57747;43.548;-5.704;2023-07-02T02:06:13;17.80;;;5.82;;
70332;SDS011;57747;43.548;-5.704;2023-07-02T02:08:38;13.55;;;4.40;;
70332;SDS011;57747;43.548;-5.704;2023-07-02T02:11:06;15.60;;;5.30;;
70332;SDS011;57747;43.548;-5.704;2023-07-02T02:13:34;11.55;;;4.38;;
70332;SDS011;57747;43.548;-5.704;2023-07-02T02:16:05;10.05;;;4.60;;
70332;SDS011;57747;43.548;-5.704;2023-07-02T02:18:38;15.93;;;4.60;;
70332;SDS011;57747;43.548;-5.704;2023-07-02T02:21:22;15.52;;;4.97;;
70332;SDS011;57747;43.548;-5.704;2023-07-02T02:23:55;11.00;;;3.97;;
70332;SDS011;57747;43.548;-5.704;2023-07-02T02:26:23;9.85;;;4.30;;
70332;SDS011;57747;43.548;-5.704;2023-07-02T02:28:50;9.38;;;4.13;;
70332;SDS011;57747;43.548;-5.704;2023-07-02T02:31:21;11.35;;;4.28;;
70332;SDS011;57747;43.548;-5.704;2023-07-02T02:33:46;12.52;;;4.10;;
70332;SDS011;57747;43.548;-5.704;2023-07-02T02:36:11;12.65;;;4.70;;
70332;SDS011;57747;43.548;-5.704;2023-07-02T02:38:37;12.73;;;4.40;;
70332;SDS011;57747;43.548;-5.704;2023-07-02T02:41:05;12.55;;;4.50;;
70332;SDS011;57747;43.548;-5.704;2023-07-02T02:43:33;11.02;;;4.43;;
70332;SDS011;57747;43.548;-5.704;2023-07-02T02:45:58;15.35;;;4.68;;
70332;SDS011;57747;43.548;-5.704;2023-07-02T02:48:23;22.42;;;5.05;;
70332;SDS011;57747;43.548;-5.704;2023-07-02T02:50:49;10.52;;;3.88;;
70332;SDS011;57747;43.548;-5.704;2023-07-02T02:53:24;9.32;;;3.35;;
70332;SDS011;57747;43.548;-5.704;2023-07-02T02:55:52;9.63;;;3.35;;
70332;SDS011;57747;43.548;-5.704;2023-07-02T02:58:20;9.32;;;3.05;;
70332;SDS011;57747;43.548;-5.704;2023-07-02T03:00:50;12.27;;;3.92;;
70332;SDS011;57747;43.548;-5.704;2023-07-02T03:03:18;12.80;;;3.83;;
70332;SDS011;57747;43.548;-5.704;2023-07-02T03:05:45;6.75;;;3.17;;
70332;SDS011;57747;43.548;-5.704;2023-07-02T03:08:13;6.90;;;3.38;;
70332;SDS011;57747;43.548;-5.704;2023-07-02T03:10:41;10.18;;;3.50;;
70332;SDS011;57747;43.548;-5.704;2023-07-02T03:13:06;10.48;;;3.35;;
70332;SDS011;57747;43.548;-5.704;2023-07-02T03:18:04;10.60;;;3.60;;
70332;SDS011;57747;43.548;-5.704;2023-07-02T03:20:29;5.68;;;3.22;;
70332;SDS011;57747;43.548;-5.704;2023-07-02T03:22:55;9.90;;;3.53;;
70332;SDS011;57747;43.548;-5.704;2023-07-02T03:25:20;8.07;;;3.90;;
70332;SDS011;57747;43.548;-5.704;2023-07-02T03:27:48;7.55;;;3.30;;
70332;SDS011;57747;43.548;-5.704;2023-07-02T03:30:19;11.00;;;3.00;;
70332;SDS011;57747;43.548;-5.704;2023-07-02T03:32:52;10.27;;;3.72;;
70332;SDS011;57747;43.548;-5.704;2023-07-02T03:35:17;6.43;;;2.80;;
70332;SDS011;57747;43.548;-5.704;2023-07-02T03:37:45;7.80;;;3.08;;
70332;SDS011;57747;43.548;-5.704;2023-07-02T03:40:11;8.25;;;3.38;;
70332;SDS011;57747;43.548;-5.704;2023-07-02T03:42:39;15.35;;;3.22;;
70332;SDS011;57747;43.548;-5.704;2023-07-02T03:45:24;11.70;;;3.05;;
70332;SDS011;57747;43.548;-5.704;2023-07-02T03:47:50;7.80;;;2.97;;
70332;SDS011;57747;43.548;-5.704;2023-07-02T03:50:24;12.05;;;3.95;;
70332;SDS011;57747;43.548;-5.704;2023-07-02T03:52:57;7.25;;;3.45;;
70332;SDS011;57747;43.548;-5.704;2023-07-02T03:55:22;9.98;;;3.72;;
70332;SDS011;57747;43.548;-5.704;2023-07-02T03:57:47;10.18;;;3.70;;
70332;SDS011;57747;43.548;-5.704;2023-07-02T04:00:21;7.78;;;3.20;;
70332;SDS011;57747;43.548;-5.704;2023-07-02T04:02:47;9.60;;;3.03;;
70332;SDS011;57747;43.548;-5.704;2023-07-02T04:05:12;6.53;;;2.80;;
70332;SDS011;57747;43.548;-5.704;2023-07-02T04:07:37;6.97;;;2.50;;
70332;SDS011;57747;43.548;-5.704;2023-07-02T04:10:03;6.78;;;2.80;;
70332;SDS011;57747;43.548;-5.704;2023-07-02T04:12:28;7.82;;;2.55;;
70332;SDS011;57747;43.548;-5.704;2023-07-02T04:14:54;6.13;;;2.35;;
70332;SDS011;57747;43.548;-5.704;2023-07-02T04:17:37;5.15;;;2.15;;
70332;SDS011;57747;43.548;-5.704;2023-07-02T04:20:03;5.97;;;2.28;;
70332;SDS011;57747;43.548;-5.704;2023-07-02T04:22:29;4.85;;;2.20;;
70332;SDS011;57747;43.548;-5.704;2023-07-02T04:24:54;5.22;;;1.60;;
70332;SDS011;57747;43.548;-5.704;2023-07-02T04:27:19;4.00;;;1.77;;
70332;SDS011;57747;43.548;-5.704;2023-07-02T04:29:45;5.13;;;1.60;;
70332;SDS011;57747;43.548;-5.704;2023-07-02T04:32:10;5.88;;;1.60;;
70332;SDS011;57747;43.548;-5.704;2023-07-02T04:34:36;4.05;;;1.42;;
70332;SDS011;57747;43.548;-5.704;2023-07-02T04:39:49;4.45;;;2.28;;
70332;SDS011;57747;43.548;-5.704;2023-07-02T04:42:15;4.63;;;2.53;;
70332;SDS011;57747;43.548;-5.704;2023-07-02T04:44:58;8.77;;;3.10;;
70332;SDS011;57747;43.548;-5.704;2023-07-02T04:47:27;9.15;;;3.38;;
70332;SDS011;57747;43.548;-5.704;2023-07-02T04:49:52;7.47;;;2.80;;
70332;SDS011;57747;43.548;-5.704;2023-07-02T04:52:24;7.95;;;2.78;;
70332;SDS011;57747;43.548;-5.704;2023-07-02T04:54:50;14.07;;;2.80;;
70332;SDS011;57747;43.548;-5.704;2023-07-02T04:57:15;7.88;;;2.85;;
70332;SDS011;57747;43.548;-5.704;2023-07-02T04:59:41;9.02;;;2.80;;
70332;SDS011;57747;43.548;-5.704;2023-07-02T05:02:07;2.72;;;1.85;;
70332;SDS011;57747;43.548;-5.704;2023-07-02T05:04:32;5.32;;;2.28;;
70332;SDS011;57747;43.548;-5.704;2023-07-02T05:06:57;4.97;;;2.45;;
70332;SDS011;57747;43.548;-5.704;2023-07-02T05:09:23;7.25;;;2.45;;
70332;SDS011;57747;43.548;-5.704;2023-07-02T05:11:48;4.38;;;2.40;;
70332;SDS011;57747;43.548;-5.704;2023-07-02T05:14:16;4.65;;;2.70;;
70332;SDS011;57747;43.548;-5.704;2023-07-02T05:16:46;8.50;;;3.33;;
70332;SDS011;57747;43.548;-5.704;2023-07-02T05:19:14;5.03;;;2.80;;
70332;SDS011;57747;43.548;-5.704;2023-07-02T05:21:48;8.27;;;3.13;;
70332;SDS011;57747;43.548;-5.704;2023-07-02T05:24:34;9.48;;;2.70;;
70332;SDS011;57747;43.548;-5.704;2023-07-02T05:26:59;7.82;;;2.47;;
70332;SDS011;57747;43.548;-5.704;2023-07-02T05:29:24;4.95;;;2.42;;
70332;SDS011;57747;43.548;-5.704;2023-07-02T05:31:50;5.72;;;2.65;;
70332;SDS011;57747;43.548;-5.704;2023-07-02T05:34:15;7.13;;;2.42;;
70332;SDS011;57747;43.548;-5.704;2023-07-02T05:36:43;5.28;;;2.17;;
70332;SDS011;57747;43.548;-5.704;2023-07-02T05:39:09;3.38;;;2.05;;
70332;SDS011;57747;43.548;-5.704;2023-07-02T05:41:34;5.00;;;2.20;;
70332;SDS011;57747;43.548;-5.704;2023-07-02T05:44:19;5.82;;;2.25;;
70332;SDS011;57747;43.548;-5.704;2023-07-02T05:46:45;5.00;;;2.40;;
70332;SDS011;57747;43.548;-5.704;2023-07-02T05:49:15;3.15;;;1.80;;
70332;SDS011;57747;43.548;-5.704;2023-07-02T05:51:41;7.82;;;2.35;;
70332;SDS011;57747;43.548;-5.704;2023-07-02T05:54:06;5.35;;;1.95;;
70332;SDS011;57747;43.548;-5.704;2023-07-02T05:56:31;5.45;;;1.70;;
70332;SDS011;57747;43.548;-5.704;2023-07-02T05:58:59;8.77;;;2.00;;
70332;SDS011;57747;43.548;-5.704;2023-07-02T06:01:25;4.15;;;1.63;;
70332;SDS011;57747;43.548;-5.704;2023-07-02T06:03:53;4.82;;;1.80;;
70332;SDS011;57747;43.548;-5.704;2023-07-02T06:09:07;9.20;;;3.25;;
70332;SDS011;57747;43.548;-5.704;2023-07-02T06:11:32;12.55;;;3.75;;
70332;SDS011;57747;43.548;-5.704;2023-07-02T06:13:57;6.60;;;3.00;;
70332;SDS011;57747;43.548;-5.704;2023-07-02T06:16:23;9.60;;;2.97;;
70332;SDS011;57747;43.548;-5.704;2023-07-02T06:19:09;10.93;;;3.80;;
70332;SDS011;57747;43.548;-5.704;2023-07-02T06:21:34;6.65;;;2.85;;
70332;SDS011;57747;43.548;-5.704;2023-07-02T06:24:00;9.40;;;3.10;;
70332;SDS011;57747;43.548;-5.704;2023-07-02T06:26:27;6.60;;;2.78;;
70332;SDS011;57747;43.548;-5.704;2023-07-02T06:28:52;6.97;;;2.50;;
70332;SDS011;57747;43.548;-5.704;2023-07-02T06:31:17;10.48;;;2.92;;
70332;SDS011;57747;43.548;-5.704;2023-07-02T06:33:43;4.32;;;2.13;;
70332;SDS011;57747;43.548;-5.704;2023-07-02T06:36:08;6.05;;;2.60;;
70332;SDS011;57747;43.548;-5.704;2023-07-02T06:38:33;5.72;;;2.42;;
70332;SDS011;57747;43.548;-5.704;2023-07-02T06:40:59;4.43;;;2.40;;
70332;SDS011;57747;43.548;-5.704;2023-07-02T06:43:24;5.57;;;2.50;;
70332;SDS011;57747;43.548;-5.704;2023-07-02T06:45:49;4.32;;;2.03;;
70332;SDS011;57747;43.548;-5.704;2023-07-02T06:48:15;4.53;;;1.90;;
70332;SDS011;57747;43.548;-5.704;2023-07-02T06:50:45;4.00;;;1.98;;
70332;SDS011;57747;43.548;-5.704;2023-07-02T06:53:11;3.85;;;2.00;;
70332;SDS011;57747;43.548;-5.704;2023-07-02T06:55:36;6.60;;;2.05;;
70332;SDS011;57747;43.548;-5.704;2023-07-02T06:58:04;3.72;;;2.25;;
70332;SDS011;57747;43.548;-5.704;2023-07-02T07:00:30;4.13;;;1.95;;
70332;SDS011;57747;43.548;-5.704;2023-07-02T07:02:56;6.63;;;2.55;;
70332;SDS011;57747;43.548;-5.704;2023-07-02T07:05:29;5.88;;;2.28;;
70332;SDS011;57747;43.548;-5.704;2023-07-02T07:07:54;5.88;;;2.30;;
70332;SDS011;57747;43.548;-5.704;2023-07-02T07:10:19;8.75;;;2.47;;
70332;SDS011;57747;43.548;-5.704;2023-07-02T07:12:45;7.43;;;2.45;;
70332;SDS011;57747;43.548;-5.704;2023-07-02T07:15:10;17.63;;;3.15;;
70332;SDS011;57747;43.548;-5.704;2023-07-02T07:17:36;9.75;;;2.88;;
70332;SDS011;57747;43.548;-5.704;2023-07-02T07:20:01;11.88;;;3.42;;
70332;SDS011;57747;43.548;-5.704;2023-07-02T07:22:30;15.32;;;3.75;;
70332;SDS011;57747;43.548;-5.704;2023-07-02T07:27:46;12.18;;;4.25;;
70332;SDS011;57747;43.548;-5.704;2023-07-02T07:30:29;10.43;;;4.43;;
70332;SDS011;57747;43.548;-5.704;2023-07-02T07:32:57;9.13;;;2.78;;
70332;SDS011;57747;43.548;-5.704;2023-07-02T07:35:23;2.92;;;1.75;;
70332;SDS011;57747;43.548;-5.704;2023-07-02T07:37:48;12.55;;;4.03;;
70332;SDS011;57747;43.548;-5.704;2023-07-02T07:40:14;10.85;;;3.75;;
70332;SDS011;57747;43.548;-5.704;2023-07-02T07:42:40;6.78;;;3.17;;
70332;SDS011;57747;43.548;-5.704;2023-07-02T07:45:05;3.78;;;2.13;;
70332;SDS011;57747;43.548;-5.704;2023-07-02T07:47:31;5.28;;;2.63;;
70332;SDS011;57747;43.548;-5.704;2023-07-02T07:49:56;6.60;;;3.45;;
70332;SDS011;57747;43.548;-5.704;2023-07-02T07:52:22;6.78;;;3.78;;
70332;SDS011;57747;43.548;-5.704;2023-07-02T07:54:47;7.43;;;3.60;;
70332;SDS011;57747;43.548;-5.704;2023-07-02T07:57:14;6.93;;;3.40;;
70332;SDS011;57747;43.548;-5.704;2023-07-02T07:59:39;4.32;;;2.35;;
70332;SDS011;57747;43.548;-5.704;2023-07-02T08:02:05;7.55;;;2.88;;
70332;SDS011;57747;43.548;-5.704;2023-07-02T08:04:30;8.07;;;2.90;;
70332;SDS011;57747;43.548;-5.704;2023-07-02T08:06:55;5.68;;;3.33;;
70332;SDS011;57747;43.548;-5.704;2023-07-02T08:09:22;6.78;;;2.70;;
70332;SDS011;57747;43.548;-5.704;2023-07-02T08:11:48;3.22;;;2.13;;
70332;SDS011;57747;43.548;-5.704;2023-07-02T08:14:13;4.30;;;2.33;;
70332;SDS011;57747;43.548;-5.704;2023-07-02T08:16:38;4.25;;;2.30;;
70332;SDS011;57747;43.548;-5.704;2023-07-02T08:19:04;7.15;;;2.60;;
70332;SDS011;57747;43.548;-5.704;2023-07-02T08:21:30;2.63;;;1.58;;
70332;SDS011;57747;43.548;-5.704;2023-07-02T08:23:55;6.75;;;2.47;;
70332;SDS011;57747;43.548;-5.704;2023-07-02T08:26:22;7.05;;;1.92;;
70332;SDS011;57747;43.548;-5.704;2023-07-02T08:28:48;5.22;;;2.10;;
70332;SDS011;57747;43.548;-5.704;2023-07-02T08:31:13;3.88;;;1.42;;
70332;SDS011;57747;43.548;-5.704;2023-07-02T08:33:38;5.28;;;1.83;;
70332;SDS011;57747;43.548;-5.704;2023-07-02T08:36:06;8.90;;;2.08;;
70332;SDS011;57747;43.548;-5.704;2023-07-02T08:38:31;9.23;;;2.05;;
70332;SDS011;57747;43.548;-5.704;2023-07-02T08:40:56;8.57;;;1.80;;
70332;SDS011;57747;43.548;-5.704;2023-07-02T08:43:23;7.50;;;2.40;;
70332;SDS011;57747;43.548;-5.704;2023-07-02T08:45:49;8.35;;;2.33;;
70332;SDS011;57747;43.548;-5.704;2023-07-02T08:48:15;12.70;;;3.50;;
70332;SDS011;57747;43.548;-5.704;2023-07-02T08:50:41;23.20;;;4.32;;
70332;SDS011;57747;43.548;-5.704;2023-07-02T08:53:07;18.02;;;4.13;;
70332;SDS011;57747;43.548;-5.704;2023-07-02T08:55:32;11.13;;;3.63;;
70332;SDS011;57747;43.548;-5.704;2023-07-02T08:57:58;14.27;;;3.42;;
70332;SDS011;57747;43.548;-5.704;2023-07-02T09:00:26;16.17;;;3.80;;
70332;SDS011;57747;43.548;-5.704;2023-07-02T09:02:54;14.52;;;3.67;;
70332;SDS011;57747;43.548;-5.704;2023-07-02T09:05:19;23.27;;;3.65;;
70332;SDS011;57747;43.548;-5.704;2023-07-02T09:07:48;15.30;;;3.97;;
70332;SDS011;57747;43.548;-5.704;2023-07-02T09:10:29;12.70;;;3.28;;
70332;SDS011;57747;43.548;-5.704;2023-07-02T09:13:07;19.23;;;3.78;;
70332;SDS011;57747;43.548;-5.704;2023-07-02T09:15:35;18.27;;;3.30;;
70332;SDS011;57747;43.548;-5.704;2023-07-02T09:18:13;12.10;;;3.20;;
70332;SDS011;57747;43.548;-5.704;2023-07-02T09:20:39;13.30;;;2.83;;
70332;SDS011;57747;43.548;-5.704;2023-07-02T09:23:04;11.95;;;2.30;;
70332;SDS011;57747;43.548;-5.704;2023-07-02T09:25:36;12.02;;;2.10;;
70332;SDS011;57747;43.548;-5.704;2023-07-02T09:28:02;9.73;;;1.92;;
70332;SDS011;57747;43.548;-5.704;2023-07-02T09:30:38;4.32;;;0.90;;
70332;SDS011;57747;43.548;-5.704;2023-07-02T09:33:13;6.75;;;1.77;;
70332;SDS011;57747;43.548;-5.704;2023-07-02T09:35:40;9.80;;;2.00;;
70332;SDS011;57747;43.548;-5.704;2023-07-02T09:38:08;9.45;;;1.70;;
70332;SDS011;57747;43.548;-5.704;2023-07-02T09:40:33;3.15;;;1.67;;
70332;SDS011;57747;43.548;-5.704;2023-07-02T09:42:59;15.88;;;3.75;;
70332;SDS011;57747;43.548;-5.704;2023-07-02T09:45:24;11.02;;;2.88;;
70332;SDS011;57747;43.548;-5.704;2023-07-02T09:47:50;8.52;;;2.42;;
70332;SDS011;57747;43.548;-5.704;2023-07-02T09:50:17;15.00;;;3.17;;
70332;SDS011;57747;43.548;-5.704;2023-07-02T09:52:45;9.23;;;2.10;;
70332;SDS011;57747;43.548;-5.704;2023-07-02T09:55:11;9.82;;;2.88;;
70332;SDS011;57747;43.548;-5.704;2023-07-02T09:57:37;5.38;;;1.50;;
70332;SDS011;57747;43.548;-5.704;2023-07-02T10:00:03;6.45;;;1.77;;
70332;SDS011;57747;43.548;-5.704;2023-07-02T10:02:32;8.25;;;1.48;;
70332;SDS011;57747;43.548;-5.704;2023-07-02T10:04:57;6.93;;;1.70;;
70332;SDS011;57747;43.548;-5.704;2023-07-02T10:07:27;2.97;;;1.42;;
70332;SDS011;57747;43.548;-5.704;2023-07-02T10:09:53;1.77;;;0.70;;
70332;SDS011;57747;43.548;-5.704;2023-07-02T10:12:22;1.30;;;0.77;;
70332;SDS011;57747;43.548;-5.704;2023-07-02T10:14:51;3.72;;;0.70;;
70332;SDS011;57747;43.548;-5.704;2023-07-02T10:17:34;6.38;;;1.10;;
70332;SDS011;57747;43.548;-5.704;2023-07-02T10:20:02;2.55;;;0.90;;
70332;SDS011;57747;43.548;-5.704;2023-07-02T10:22:49;2.45;;;0.75;;
70332;SDS011;57747;43.548;-5.704;2023-07-02T10:25:26;2.47;;;0.70;;
70332;SDS011;57747;43.548;-5.704;2023-07-02T10:27:52;5.30;;;1.15;;
70332;SDS011;57747;43.548;-5.704;2023-07-02T10:30:17;4.72;;;1.15;;
70332;SDS011;57747;43.548;-5.704;2023-07-02T10:32:42;4.85;;;1.00;;
70332;SDS011;57747;43.548;-5.704;2023-07-02T10:35:17;3.65;;;0.82;;
70332;SDS011;57747;43.548;-5.704;2023-07-02T10:37:45;3.75;;;0.93;;
70332;SDS011;57747;43.548;-5.704;2023-07-02T10:40:10;2.22;;;1.02;;
70332;SDS011;57747;43.548;-5.704;2023-07-02T10:42:50;3.15;;;0.85;;
70332;SDS011;57747;43.548;-5.704;2023-07-02T10:45:16;6.97;;;1.00;;
70332;SDS011;57747;43.548;-5.704;2023-07-02T10:47:42;4.05;;;0.47;;
70332;SDS011;57747;43.548;-5.704;2023-07-02T10:50:16;5.05;;;0.80;;
70332;SDS011;57747;43.548;-5.704;2023-07-02T10:52:42;2.58;;;0.70;;
70332;SDS011;57747;43.548;-5.704;2023-07-02T10:55:10;1.13;;;0.50;;
70332;SDS011;57747;43.548;-5.704;2023-07-02T10:57:35;2.08;;;0.90;;
70332;SDS011;57747;43.548;-5.704;2023-07-02T11:00:04;1.08;;;0.40;;
70332;SDS011;57747;43.548;-5.704;2023-07-02T11:02:37;2.30;;;0.90;;
70332;SDS011;57747;43.548;-5.704;2023-07-02T11:05:02;2.30;;;0.80;;
70332;SDS011;57747;43.548;-5.704;2023-07-02T11:07:28;3.35;;;0.80;;
70332;SDS011;57747;43.548;-5.704;2023-07-02T11:09:56;0.98;;;0.70;;
70332;SDS011;57747;43.548;-5.704;2023-07-02T11:12:30;3.78;;;0.95;;
70332;SDS011;57747;43.548;-5.704;2023-07-02T11:14:55;1.30;;;0.50;;
70332;SDS011;57747;43.548;-5.704;2023-07-02T11:17:34;1.30;;;0.40;;
70332;SDS011;57747;43.548;-5.704;2023-07-02T11:19:59;0.82;;;0.43;;
70332;SDS011;57747;43.548;-5.704;2023-07-02T11:22:31;2.85;;;0.40;;
70332;SDS011;57747;43.548;-5.704;2023-07-02T11:24:56;1.67;;;0.50;;
70332;SDS011;57747;43.548;-5.704;2023-07-02T11:27:22;4.88;;;0.82;;
70332;SDS011;57747;43.548;-5.704;2023-07-02T11:29:58;2.67;;;0.68;;
70332;SDS011;57747;43.548;-5.704;2023-07-02T11:32:24;1.58;;;0.47;;
70332;SDS011;57747;43.548;-5.704;2023-07-02T11:34:52;2.63;;;0.63;;
70332;SDS011;57747;43.548;-5.704;2023-07-02T11:37:21;1.90;;;0.50;;
70332;SDS011;57747;43.548;-5.704;2023-07-02T11:39:46;1.95;;;0.70;;
70332;SDS011;57747;43.548;-5.704;2023-07-02T11:42:12;1.25;;;0.70;;
70332;SDS011;57747;43.548;-5.704;2023-07-02T11:44:43;2.45;;;0.52;;
70332;SDS011;57747;43.548;-5.704;2023-07-02T11:47:08;1.73;;;0.60;;
70332;SDS011;57747;43.548;-5.704;2023-07-02T11:49:36;0.75;;;0.40;;
70332;SDS011;57747;43.548;-5.704;2023-07-02T11:52:01;0.70;;;0.40;;
70332;SDS011;57747;43.548;-5.704;2023-07-02T11:54:29;1.50;;;0.60;;
70332;SDS011;57747;43.548;-5.704;2023-07-02T11:56:56;5.32;;;1.15;;
70332;SDS011;57747;43.548;-5.704;2023-07-02T11:59:23;2.75;;;0.93;;
70332;SDS011;57747;43.548;-5.704;2023-07-02T12:01:49;2.30;;;0.80;;
70332;SDS011;57747;43.548;-5.704;2023-07-02T12:04:14;1.83;;;0.80;;
70332;SDS011;57747;43.548;-5.704;2023-07-02T12:06:40;1.45;;;0.60;;
70332;SDS011;57747;43.548;-5.704;2023-07-02T12:09:05;2.30;;;0.60;;
70332;SDS011;57747;43.548;-5.704;2023-07-02T12:11:31;4.63;;;0.75;;
70332;SDS011;57747;43.548;-5.704;2023-07-02T12:13:56;4.10;;;0.65;;
70332;SDS011;57747;43.548;-5.704;2023-07-02T12:16:21;3.00;;;0.60;;
70332;SDS011;57747;43.548;-5.704;2023-07-02T12:18:47;1.92;;;0.80;;
70332;SDS011;57747;43.548;-5.704;2023-07-02T12:21:12;2.33;;;0.70;;
70332;SDS011;57747;43.548;-5.704;2023-07-02T12:23:38;2.15;;;0.70;;
70332;SDS011;57747;43.548;-5.704;2023-07-02T12:26:03;2.92;;;0.80;;
70332;SDS011;57747;43.548;-5.704;2023-07-02T12:28:28;1.83;;;1.00;;
70332;SDS011;57747;43.548;-5.704;2023-07-02T12:30:54;5.75;;;0.85;;
70332;SDS011;57747;43.548;-5.704;2023-07-02T12:33:19;1.73;;;0.93;;
70332;SDS011;57747;43.548;-5.704;2023-07-02T12:35:44;2.17;;;0.90;;
70332;SDS011;57747;43.548;-5.704;2023-07-02T12:38:10;1.88;;;0.65;;
70332;SDS011;57747;43.548;-5.704;2023-07-02T12:40:38;1.27;;;0.60;;
70332;SDS011;57747;43.548;-5.704;2023-07-02T12:43:03;6.07;;;0.70;;
70332;SDS011;57747;43.548;-5.704;2023-07-02T12:45:28;3.75;;;1.10;;
70332;SDS011;57747;43.548;-5.704;2023-07-02T12:47:53;3.15;;;0.98;;
70332;SDS011;57747;43.548;-5.704;2023-07-02T12:50:19;0.70;;;0.65;;
70332;SDS011;57747;43.548;-5.704;2023-07-02T12:52:44;2.03;;;0.57;;
70332;SDS011;57747;43.548;-5.704;2023-07-02T12:55:13;6.63;;;0.70;;
70332;SDS011;57747;43.548;-5.704;2023-07-02T12:57:40;4.03;;;0.68;;
70332;SDS011;57747;43.548;-5.704;2023-07-02T13:00:06;2.28;;;0.60;;
70332;SDS011;57747;43.548;-5.704;2023-07-02T13:02:36;2.58;;;0.70;;
70332;SDS011;57747;43.548;-5.704;2023-07-02T13:05:01;4.13;;;0.95;;
70332;SDS011;57747;43.548;-5.704;2023-07-02T13:07:29;4.10;;;0.82;;
70332;SDS011;57747;43.548;-5.704;2023-07-02T13:09:55;1.77;;;0.60;;
70332;SDS011;57747;43.548;-5.704;2023-07-02T13:12:24;2.33;;;1.00;;
70332;SDS011;57747;43.548;-5.704;2023-07-02T13:14:49;1.55;;;0.80;;
70332;SDS011;57747;43.548;-5.704;2023-07-02T13:17:14;2.38;;;0.93;;
70332;SDS011;57747;43.548;-5.704;2023-07-02T13:19:40;2.80;;;0.80;;
70332;SDS011;57747;43.548;-5.704;2023-07-02T13:22:05;3.35;;;0.88;;
70332;SDS011;57747;43.548;-5.704;2023-07-02T13:24:34;1.90;;;0.93;;
70332;SDS011;57747;43.548;-5.704;2023-07-02T13:27:03;3.83;;;0.83;;
70332;SDS011;57747;43.548;-5.704;2023-07-02T13:29:29;4.05;;;0.93;;
70332;SDS011;57747;43.548;-5.704;2023-07-02T13:31:54;1.17;;;0.70;;
70332;SDS011;57747;43.548;-5.704;2023-07-02T13:34:20;1.75;;;1.00;;
70332;SDS011;57747;43.548;-5.704;2023-07-02T13:36:51;3.40;;;0.80;;
70332;SDS011;57747;43.548;-5.704;2023-07-02T13:39:16;3.63;;;1.25;;
70332;SDS011;57747;43.548;-5.704;2023-07-02T13:41:42;5.30;;;0.95;;
70332;SDS011;57747;43.548;-5.704;2023-07-02T13:44:07;1.98;;;0.77;;
70332;SDS011;57747;43.548;-5.704;2023-07-02T13:46:35;2.45;;;0.98;;
70332;SDS011;57747;43.548;-5.704;2023-07-02T13:49:00;1.73;;;1.00;;
70332;SDS011;57747;43.548;-5.704;2023-07-02T13:51:26;4.25;;;1.17;;
70332;SDS011;57747;43.548;-5.704;2023-07-02T13:53:51;4.45;;;1.17;;
70332;SDS011;57747;43.548;-5.704;2023-07-02T13:56:19;1.25;;;0.80;;
70332;SDS011;57747;43.548;-5.704;2023-07-02T14:01:24;3.22;;;0.77;;
70332;SDS011;57747;43.548;-5.704;2023-07-02T14:03:50;1.73;;;0.70;;
70332;SDS011;57747;43.548;-5.704;2023-07-02T14:06:16;2.10;;;0.52;;
70332;SDS011;57747;43.548;-5.704;2023-07-02T14:08:41;3.08;;;0.65;;
70332;SDS011;57747;43.548;-5.704;2023-07-02T14:11:07;3.53;;;0.80;;
70332;SDS011;57747;43.548;-5.704;2023-07-02T14:13:32;4.43;;;0.50;;
70332;SDS011;57747;43.548;-5.704;2023-07-02T14:15:58;2.83;;;0.70;;
70332;SDS011;57747;43.548;-5.704;2023-07-02T14:18:26;2.40;;;0.73;;
70332;SDS011;57747;43.548;-5.704;2023-07-02T14:20:51;2.00;;;0.73;;
70332;SDS011;57747;43.548;-5.704;2023-07-02T14:23:17;3.13;;;0.73;;
70332;SDS011;57747;43.548;-5.704;2023-07-02T14:25:42;1.58;;;0.60;;
70332;SDS011;57747;43.548;-5.704;2023-07-02T14:28:10;2.58;;;0.70;;
70332;SDS011;57747;43.548;-5.704;2023-07-02T14:30:36;1.00;;;0.70;;
70332;SDS011;57747;43.548;-5.704;2023-07-02T14:33:01;3.05;;;0.88;;
70332;SDS011;57747;43.548;-5.704;2023-07-02T14:35:26;1.63;;;0.68;;
70332;SDS011;57747;43.548;-5.704;2023-07-02T14:37:54;3.63;;;0.98;;
70332;SDS011;57747;43.548;-5.704;2023-07-02T14:40:20;3.85;;;0.82;;
70332;SDS011;57747;43.548;-5.704;2023-07-02T14:42:45;4.20;;;1.05;;
70332;SDS011;57747;43.548;-5.704;2023-07-02T14:45:11;3.03;;;0.98;;
70332;SDS011;57747;43.548;-5.704;2023-07-02T14:47:37;3.13;;;0.80;;
70332;SDS011;57747;43.548;-5.704;2023-07-02T14:50:02;5.20;;;1.10;;
70332;SDS011;57747;43.548;-5.704;2023-07-02T14:52:28;2.25;;;0.80;;
70332;SDS011;57747;43.548;-5.704;2023-07-02T14:54:53;1.27;;;0.70;;